Time;durP1;ratioP1;P1;durP2;ratioP2;P2;SDS_P1;SDS_P2;PMS_P1;PMS_P2;Temp;Humidity;BMP_temperature;BMP_pressure;BME280_temperature;BME280_humidity;BME280_pressure;Samples;Min_cycle;Max_cycle;Signal;HPM_P1;HPM_P2
2021/03/28 00:00:56;;;;;;;9.57;3.03;;;8.00;65.60;;;;;;5072694;28;20388;-74
2021/03/28 00:03:33;;;;;;;8.68;3.17;;;8.00;65.50;;;;;;5074004;28;20070;-74
2021/03/28 00:06:13;;;;;;;13.68;4.60;;;8.10;65.60;;;;;;5073233;28;20108;-74
2021/03/28 00:08:42;;;;;;;14.40;4.20;;;8.10;65.70;;;;;;5072559;28;20116;-74
2021/03/28 00:11:21;;;;;;;8.60;3.10;;;8.00;65.50;;;;;;5074002;28;20032;-74
2021/03/28 00:13:54;;;;;;;9.30;3.03;;;8.00;65.60;;;;;;5072454;28;20487;-74
2021/03/28 00:16:28;;;;;;;9.57;3.00;;;8.00;65.70;;;;;;5072429;28;20391;-74
2021/03/28 00:19:18;;;;;;;9.77;3.50;;;8.00;65.90;;;;;;5073499;28;20122;-74
2021/03/28 00:21:51;;;;;;;12.45;3.50;;;8.00;66.00;;;;;;5073437;28;20025;-74
2021/03/28 00:24:28;;;;;;;9.13;3.20;;;7.90;66.00;;;;;;5073576;28;20025;-74
2021/03/28 00:27:09;;;;;;;10.20;3.13;;;7.90;66.20;;;;;;5072167;28;20059;-74
2021/03/28 00:30:29;;;;;;;8.18;2.70;;;7.90;66.20;;;;;;5073483;28;20056;-74
2021/03/28 00:33:06;;;;;;;9.30;3.00;;;7.90;66.30;;;;;;5071347;28;20032;-74
2021/03/28 00:35:46;;;;;;;10.57;2.97;;;7.90;66.40;;;;;;5069023;28;20044;-74
2021/03/28 00:38:22;;;;;;;9.38;2.88;;;8.00;66.50;;;;;;5072070;28;20163;-74
2021/03/28 00:41:16;;;;;;;10.05;3.00;;;7.90;66.60;;;;;;5071696;28;20550;-74
2021/03/28 00:43:55;;;;;;;10.35;2.90;;;7.90;66.70;;;;;;5071751;28;20031;-74
2021/03/28 00:46:39;;;;;;;9.00;3.08;;;7.90;66.80;;;;;;5071787;28;20031;-74
2021/03/28 00:49:07;;;;;;;8.75;3.10;;;7.90;66.80;;;;;;5072961;28;20047;-74
2021/03/28 00:51:35;;;;;;;7.00;2.58;;;7.90;66.90;;;;;;5072853;28;20401;-74
2021/03/28 00:54:14;;;;;;;7.50;2.90;;;7.90;67.00;;;;;;5072569;28;20027;-74
2021/03/28 00:56:59;;;;;;;15.60;5.13;;;7.90;67.00;;;;;;5072978;28;20476;-74
2021/03/28 00:59:48;;;;;;;10.35;3.67;;;7.90;67.10;;;;;;5071939;28;20020;-74
2021/03/28 01:02:28;;;;;;;9.40;3.40;;;7.90;67.10;;;;;;5075817;28;20037;-74
2021/03/28 01:05:00;;;;;;;10.82;3.40;;;7.90;67.20;;;;;;5071609;28;20467;-74
2021/03/28 01:07:43;;;;;;;8.63;3.22;;;8.00;67.20;;;;;;5071481;28;20040;-73
2021/03/28 01:10:17;;;;;;;8.30;3.30;;;8.00;67.20;;;;;;5072978;28;20029;-74
2021/03/28 01:13:20;;;;;;;12.82;3.92;;;8.00;67.20;;;;;;5071388;28;20032;-74
2021/03/28 01:16:20;;;;;;;11.38;3.70;;;8.00;67.30;;;;;;5071385;28;20530;-74
2021/03/28 01:19:22;;;;;;;9.75;3.28;;;8.10;67.30;;;;;;5077391;28;20024;-74
2021/03/28 01:22:03;;;;;;;7.05;3.28;;;8.10;67.40;;;;;;5068151;28;20040;-74
2021/03/28 01:24:50;;;;;;;17.10;4.40;;;8.10;67.50;;;;;;5075626;28;20049;-74
2021/03/28 01:27:35;;;;;;;7.88;3.55;;;8.10;67.50;;;;;;5075508;28;20052;-74
2021/03/28 01:30:07;;;;;;;14.10;3.78;;;8.10;67.60;;;;;;5075498;28;20052;-74
2021/03/28 01:32:35;;;;;;;10.05;3.90;;;8.10;67.60;;;;;;5075498;28;20032;-74
2021/03/28 01:35:09;;;;;;;11.35;3.80;;;8.10;67.70;;;;;;5076730;28;20246;-74
2021/03/28 01:37:44;;;;;;;10.73;3.45;;;8.10;67.80;;;;;;5076778;28;20033;-74
2021/03/28 01:40:33;;;;;;;7.35;3.53;;;8.10;67.90;;;;;;5075210;28;20040;-74
2021/03/28 01:43:22;;;;;;;7.78;3.20;;;8.00;68.00;;;;;;5075539;28;20036;-74
2021/03/28 01:46:12;;;;;;;11.15;3.40;;;8.00;68.10;;;;;;5075043;28;20028;-74
2021/03/28 01:48:53;;;;;;;11.68;2.97;;;8.00;68.40;;;;;;5076839;28;20055;-74
2021/03/28 01:51:40;;;;;;;6.65;2.60;;;7.90;68.50;;;;;;5074867;28;20563;-74
2021/03/28 01:54:19;;;;;;;12.50;4.75;;;7.90;68.50;;;;;;5074800;28;20033;-74
2021/03/28 01:56:57;;;;;;;12.35;3.20;;;7.90;68.60;;;;;;5074870;28;20476;-74
2021/03/28 01:59:49;;;;;;;8.73;2.90;;;7.90;68.80;;;;;;5074582;28;20028;-74
2021/03/28 02:02:40;;;;;;;8.93;3.20;;;7.90;68.80;;;;;;5076154;28;20063;-74
2021/03/28 02:05:28;;;;;;;8.85;2.85;;;7.90;68.90;;;;;;5075883;28;20032;-74
2021/03/28 02:08:24;;;;;;;6.60;2.83;;;7.90;69.00;;;;;;5074639;28;20025;-74
2021/03/28 02:11:15;;;;;;;9.75;2.65;;;7.90;69.30;;;;;;5074618;28;20501;-74
2021/03/28 02:14:17;;;;;;;6.88;2.30;;;7.90;69.30;;;;;;5074692;28;20040;-74
2021/03/28 02:17:15;;;;;;;5.93;2.40;;;7.90;69.30;;;;;;5074657;28;20124;-74
2021/03/28 02:20:08;;;;;;;8.55;2.40;;;7.90;69.40;;;;;;5075767;28;20069;-72
2021/03/28 02:22:47;;;;;;;13.68;2.60;;;7.90;69.50;;;;;;5074491;28;20035;-74
2021/03/28 02:25:20;;;;;;;9.77;2.47;;;7.90;69.60;;;;;;5074238;28;20021;-74
2021/03/28 02:27:51;;;;;;;11.27;2.40;;;7.90;69.70;;;;;;5073840;28;20230;-74
2021/03/28 02:30:40;;;;;;;7.65;2.50;;;7.90;70.00;;;;;;5073754;28;20040;-74
2021/03/28 02:33:28;;;;;;;9.13;2.67;;;7.90;70.10;;;;;;5074331;28;20453;-74
2021/03/28 02:36:01;;;;;;;9.73;2.40;;;7.90;70.30;;;;;;5075301;28;20130;-74
2021/03/28 02:39:04;;;;;;;6.22;2.13;;;7.80;70.30;;;;;;5075445;28;20028;-74
2021/03/28 02:41:43;;;;;;;5.28;2.05;;;7.90;70.40;;;;;;5075426;28;20028;-74
2021/03/28 02:44:09;;;;;;;7.47;2.10;;;7.80;70.40;;;;;;5075342;28;20040;-74
2021/03/28 02:47:12;;;;;;;7.20;2.20;;;7.90;70.50;;;;;;5074024;28;20116;-73
2021/03/28 02:50:08;;;;;;;12.75;4.90;;;7.90;70.60;;;;;;5064379;28;20039;-74
2021/03/28 02:52:45;;;;;;;10.88;4.00;;;7.90;70.60;;;;;;5073620;28;20029;-74
2021/03/28 02:55:41;;;;;;;9.93;2.60;;;7.90;70.70;;;;;;5073791;28;20480;-74
2021/03/28 02:58:28;;;;;;;7.22;2.40;;;7.90;70.80;;;;;;5073774;28;20123;-74
2021/03/28 03:01:27;;;;;;;8.90;2.78;;;7.90;70.80;;;;;;5074965;28;20112;-74
2021/03/28 03:04:14;;;;;;;7.05;1.92;;;7.90;70.90;;;;;;5074829;28;20036;-74
2021/03/28 03:07:01;;;;;;;5.65;1.80;;;7.90;71.00;;;;;;5073470;28;20032;-74
2021/03/28 03:09:45;;;;;;;7.78;2.20;;;7.90;71.00;;;;;;5073443;28;20392;-74
2021/03/28 03:12:21;;;;;;;7.47;2.33;;;7.90;71.20;;;;;;5074572;28;20036;-74
2021/03/28 03:15:24;;;;;;;11.00;2.50;;;7.90;71.80;;;;;;5074703;28;20033;-74
2021/03/28 03:18:17;;;;;;;5.68;2.05;;;7.90;71.40;;;;;;5073187;28;20036;-74
2021/03/28 03:21:15;;;;;;;12.07;2.45;;;7.90;71.40;;;;;;5074550;28;20029;-74
2021/03/28 03:24:19;;;;;;;7.15;2.15;;;7.90;71.60;;;;;;5073847;28;20044;-74
2021/03/28 03:27:04;;;;;;;;;;;7.90;71.60;;;;;;5073644;28;20031;-74
2021/03/28 03:29:35;;;;;;;8.40;2.00;;;7.80;71.80;;;;;;5074332;28;19927;-73
2021/03/28 03:32:13;;;;;;;9.70;2.35;;;7.80;71.80;;;;;;5073044;28;20039;-73
2021/03/28 03:34:59;;;;;;;9.10;2.78;;;7.80;72.00;;;;;;5074352;28;20103;-74
2021/03/28 03:37:44;;;;;;;7.18;2.53;;;7.80;72.20;;;;;;5074190;28;20131;-74
2021/03/28 03:40:13;;;;;;;5.97;2.10;;;7.80;72.20;;;;;;5074105;28;20406;-74
2021/03/28 03:42:56;;;;;;;8.45;2.13;;;7.80;72.10;;;;;;5073025;28;20066;-74
2021/03/28 03:45:34;;;;;;;7.20;1.63;;;7.80;72.20;;;;;;5074117;28;20024;-74
2021/03/28 03:48:09;;;;;;;5.70;2.00;;;7.80;72.20;;;;;;5073012;28;20432;-74
2021/03/28 03:51:01;;;;;;;7.55;1.95;;;7.80;72.30;;;;;;5074000;28;20124;-74
2021/03/28 03:53:57;;;;;;;6.00;1.80;;;7.80;72.40;;;;;;5072712;28;20167;-74
2021/03/28 03:56:41;;;;;;;8.15;1.90;;;7.80;72.40;;;;;;5072668;28;20066;-74
2021/03/28 03:59:13;;;;;;;8.05;2.05;;;7.90;72.50;;;;;;5074215;28;20108;-73
2021/03/28 04:02:01;;;;;;;7.00;2.80;;;7.80;72.40;;;;;;5072685;28;20032;-73
2021/03/28 04:04:40;;;;;;;14.60;3.88;;;7.90;72.50;;;;;;5073929;28;20028;-74
2021/03/28 04:07:24;;;;;;;9.68;3.05;;;7.90;72.40;;;;;;5072597;28;20024;-74
2021/03/28 04:10:05;;;;;;;7.95;2.33;;;7.90;72.40;;;;;;5073759;28;20024;-74
2021/03/28 04:12:59;;;;;;;7.80;2.20;;;8.00;72.40;;;;;;5073736;28;20115;-74
2021/03/28 04:15:34;;;;;;;6.47;2.08;;;8.00;72.40;;;;;;5070269;28;20036;-74
2021/03/28 04:18:25;;;;;;;10.57;2.60;;;8.00;72.40;;;;;;5074096;28;20032;-74
2021/03/28 04:21:13;;;;;;;8.13;2.00;;;8.00;72.40;;;;;;5072947;28;20048;-74
2021/03/28 04:24:05;;;;;;;5.15;1.90;;;8.00;72.40;;;;;;5072137;28;20035;-74
2021/03/28 04:26:31;;;;;;;5.70;1.95;;;8.00;72.40;;;;;;5072094;28;20111;-74
2021/03/28 04:29:16;;;;;;;6.68;2.00;;;8.00;72.30;;;;;;5073377;28;20048;-74
2021/03/28 04:31:50;;;;;;;12.50;2.60;;;8.10;72.40;;;;;;5072018;28;20028;-74
2021/03/28 04:34:46;;;;;;;8.30;1.77;;;8.10;72.30;;;;;;5072027;28;20028;-74
2021/03/28 04:37:33;;;;;;;11.48;2.33;;;8.10;72.30;;;;;;5071861;28;20377;-74
2021/03/28 04:40:14;;;;;;;7.07;2.20;;;8.10;72.30;;;;;;5071945;28;20029;-74
2021/03/28 04:42:52;;;;;;;7.63;2.75;;;8.10;72.30;;;;;;5073361;28;20029;-73
2021/03/28 04:45:39;;;;;;;6.57;2.10;;;8.10;72.30;;;;;;5073258;28;20028;-73
2021/03/28 04:48:26;;;;;;;6.40;2.10;;;8.10;72.30;;;;;;5072115;28;20035;-74
2021/03/28 04:51:25;;;;;;;6.78;2.22;;;8.10;72.30;;;;;;5072924;28;20068;-74
2021/03/28 04:53:57;;;;;;;7.90;1.90;;;8.10;72.30;;;;;;5071822;28;20032;-74
2021/03/28 04:56:28;;;;;;;9.00;2.35;;;8.10;72.30;;;;;;5073215;28;20028;-74
2021/03/28 04:58:57;;;;;;;6.32;2.25;;;8.10;72.40;;;;;;5071817;28;20030;-74
2021/03/28 05:01:44;;;;;;;7.05;2.53;;;8.10;72.40;;;;;;5071624;28;20043;-74
2021/03/28 05:04:44;;;;;;;8.27;2.70;;;8.10;72.50;;;;;;5072941;28;20021;-73
2021/03/28 05:07:24;;;;;;;5.18;1.83;;;8.10;72.50;;;;;;5071598;28;20029;-74
2021/03/28 05:10:11;;;;;;;7.00;2.05;;;8.10;72.50;;;;;;5071686;28;20170;-74
2021/03/28 05:13:24;;;;;;;10.13;2.60;;;8.10;72.60;;;;;;5073086;28;20035;-74
2021/03/28 05:16:47;;;;;;;9.43;2.67;;;8.10;72.50;;;;;;5071232;28;20068;-74
2021/03/28 05:19:27;;;;;;;6.43;1.88;;;8.10;72.60;;;;;;4991325;28;20042;-74
2021/03/28 05:22:17;;;;;;;4.43;1.67;;;8.10;72.50;;;;;;4991313;28;20030;-74
2021/03/28 05:25:27;;;;;;;10.27;2.95;;;8.10;72.50;;;;;;4991286;28;20042;-74
2021/03/28 05:28:11;;;;;;;5.03;2.40;;;8.20;72.50;;;;;;4952485;29;20035;-74
2021/03/28 05:31:17;;;;;;;8.93;1.90;;;8.20;72.50;;;;;;4952695;29;20472;-74
2021/03/28 05:33:43;;;;;;;5.47;1.58;;;8.20;72.60;;;;;;4952729;29;20518;-73
2021/03/28 05:36:39;;;;;;;6.57;1.77;;;8.20;72.50;;;;;;4952439;29;20058;-73
2021/03/28 05:39:35;;;;;;;5.22;2.20;;;8.20;72.50;;;;;;4952663;29;20055;-74
2021/03/28 05:42:27;;;;;;;7.80;2.15;;;8.20;72.50;;;;;;4952458;29;20046;-74
2021/03/28 05:45:19;;;;;;;5.80;2.03;;;8.20;72.60;;;;;;4952727;29;20149;-74
2021/03/28 05:48:04;;;;;;;9.30;2.30;;;8.20;72.70;;;;;;4952514;29;20035;-74
2021/03/28 05:50:29;;;;;;;6.85;2.03;;;8.20;72.80;;;;;;4984235;28;20134;-74
2021/03/28 05:52:55;;;;;;;8.57;2.28;;;8.30;72.80;;;;;;5028268;28;20156;-74
2021/03/28 05:55:50;;;;;;;5.32;2.10;;;8.30;72.70;;;;;;5030432;28;20033;-74
2021/03/28 05:58:15;;;;;;;8.73;2.00;;;8.30;72.90;;;;;;5044113;28;20047;-74
2021/03/28 06:00:59;;;;;;;4.68;1.98;;;8.40;72.60;;;;;;5072243;28;20020;-73
2021/03/28 06:03:49;;;;;;;6.03;1.60;;;8.40;72.60;;;;;;5072851;28;20025;-74
2021/03/28 06:06:30;;;;;;;7.22;2.00;;;8.40;72.60;;;;;;5076407;28;20021;-74
2021/03/28 06:09:21;;;;;;;7.53;1.80;;;8.50;72.60;;;;;;5074852;28;20024;-74
2021/03/28 06:12:03;;;;;;;6.68;1.67;;;8.50;72.50;;;;;;5074731;28;20487;-73
2021/03/28 06:14:54;;;;;;;5.25;1.80;;;8.60;72.50;;;;;;5076017;28;20074;-73
2021/03/28 06:17:57;;;;;;;7.18;1.80;;;8.60;72.50;;;;;;5075774;28;20103;-73
2021/03/28 06:20:29;;;;;;;4.60;1.73;;;8.70;72.40;;;;;;5075679;28;20043;-74
2021/03/28 06:23:13;;;;;;;4.88;1.77;;;8.70;72.30;;;;;;5074437;28;20029;-74
2021/03/28 06:25:56;;;;;;;6.32;1.88;;;8.70;72.30;;;;;;5075994;28;20078;-74
2021/03/28 06:28:43;;;;;;;7.22;2.00;;;8.80;72.30;;;;;;5074395;28;20103;-74
2021/03/28 06:31:27;;;;;;;9.07;2.97;;;8.80;72.30;;;;;;5074253;28;20057;-73
2021/03/28 06:34:11;;;;;;;5.97;2.00;;;8.80;72.20;;;;;;5075632;28;20032;-73
2021/03/28 06:37:15;;;;;;;7.43;1.80;;;8.90;72.20;;;;;;5075734;28;20566;-74
2021/03/28 06:40:38;;;;;;;7.05;1.80;;;8.90;72.00;;;;;;5074324;28;20048;-74
2021/03/28 06:43:41;;;;;;;6.20;1.70;;;9.00;72.00;;;;;;5075165;28;20062;-73
2021/03/28 06:46:37;;;;;;;7.20;1.77;;;9.00;71.90;;;;;;5073993;28;20502;-73
2021/03/28 06:49:25;;;;;;;6.75;1.80;;;9.10;71.80;;;;;;5074038;28;20027;-74
2021/03/28 06:52:04;;;;;;;5.30;1.70;;;9.10;71.80;;;;;;5075176;28;20426;-73
2021/03/28 06:54:48;;;;;;;9.48;2.35;;;9.10;71.80;;;;;;5073961;28;20389;-74
2021/03/28 06:57:43;;;;;;;5.28;1.73;;;9.10;71.80;;;;;;5073887;28;20098;-73
2021/03/28 07:00:47;;;;;;;9.05;1.90;;;9.10;71.70;;;;;;5075181;28;20021;-74
2021/03/28 07:03:42;;;;;;;5.20;1.90;;;9.10;72.40;;;;;;5067621;28;20081;-72
2021/03/28 07:06:35;;;;;;;7.72;2.10;;;9.00;71.80;;;;;;5074963;28;20114;-73
2021/03/28 07:09:23;;;;;;;8.25;2.00;;;9.00;71.90;;;;;;5073718;28;20464;-73
2021/03/28 07:11:58;;;;;;;6.40;1.80;;;9.00;71.90;;;;;;5074926;28;20029;-74
2021/03/28 07:14:45;;;;;;;6.93;1.98;;;9.00;71.80;;;;;;5072935;28;20020;-74
2021/03/28 07:17:13;;;;;;;6.57;2.25;;;9.10;71.80;;;;;;5074753;28;20380;-74
2021/03/28 07:20:08;;;;;;;5.47;1.92;;;9.30;71.70;;;;;;5075119;28;20025;-74
2021/03/28 07:22:58;;;;;;;8.85;2.20;;;9.40;72.10;;;;;;5073387;28;20447;-71
2021/03/28 07:25:24;;;;;;;7.15;2.08;;;9.40;71.30;;;;;;5074470;28;20118;-72
2021/03/28 07:28:02;;;;;;;7.28;1.95;;;9.50;71.20;;;;;;5074513;28;20023;-74
2021/03/28 07:30:55;;;;;;;6.78;2.00;;;9.50;71.20;;;;;;5073157;28;20481;-73
2021/03/28 07:33:38;;;;;;;6.63;1.80;;;9.60;71.10;;;;;;5074248;28;20031;-73
2021/03/28 07:36:13;;;;;;;6.03;2.20;;;9.70;71.00;;;;;;5072690;28;20125;-73
2021/03/28 07:39:14;;;;;;;7.57;2.35;;;9.70;70.90;;;;;;5073147;28;20063;-73
2021/03/28 07:41:58;;;;;;;7.97;2.10;;;9.80;70.80;;;;;;5071630;28;20041;-73
2021/03/28 07:44:45;;;;;;;6.85;2.35;;;9.90;70.70;;;;;;5074262;28;20033;-73
2021/03/28 07:47:22;;;;;;;4.68;2.00;;;10.00;70.60;;;;;;5074533;28;20132;-73
2021/03/28 07:49:57;;;;;;;8.95;2.65;;;10.00;70.40;;;;;;5074180;28;20416;-73
2021/03/28 07:53:00;;;;;;;4.90;2.03;;;10.00;70.40;;;;;;5072551;28;20499;-73
2021/03/28 07:55:28;;;;;;;8.27;2.65;;;10.10;70.40;;;;;;5074026;28;20103;-72
2021/03/28 07:58:18;;;;;;;4.68;2.03;;;10.20;70.30;;;;;;5072617;28;20021;-72
2021/03/28 08:01:22;;;;;;;6.47;2.17;;;10.30;70.20;;;;;;5073961;28;20036;-73
2021/03/28 08:04:02;;;;;;;6.70;2.75;;;10.40;70.10;;;;;;5074324;28;20024;-72
2021/03/28 08:06:49;;;;;;;7.50;2.30;;;10.30;69.90;;;;;;5072694;28;20034;-73
2021/03/28 08:09:22;;;;;;;6.97;2.47;;;10.30;70.00;;;;;;5073654;28;20135;-73
2021/03/28 08:11:54;;;;;;;8.65;2.60;;;10.30;70.20;;;;;;5072539;28;20119;-73
2021/03/28 08:14:38;;;;;;;9.13;2.60;;;10.20;70.30;;;;;;5072409;28;20373;-73
2021/03/28 08:17:22;;;;;;;8.57;2.72;;;10.20;70.50;;;;;;5072282;28;20115;-73
2021/03/28 08:20:15;;;;;;;12.10;3.33;;;10.20;70.60;;;;;;5073924;28;20028;-73
2021/03/28 08:22:46;;;;;;;10.32;3.10;;;10.20;70.60;;;;;;5072521;28;20020;-73
2021/03/28 08:25:12;;;;;;;6.95;2.55;;;10.30;70.80;;;;;;5072318;28;20024;-73
2021/03/28 08:27:50;;;;;;;10.77;2.85;;;10.30;70.80;;;;;;5071399;28;20171;-73
2021/03/28 08:30:27;;;;;;;7.80;2.55;;;10.30;70.80;;;;;;5073382;28;20047;-73
2021/03/28 08:33:14;;;;;;;6.22;2.33;;;10.30;70.80;;;;;;5072127;28;20028;-73
2021/03/28 08:36:07;;;;;;;11.63;2.72;;;10.40;70.90;;;;;;5073359;28;20554;-73
2021/03/28 08:39:01;;;;;;;8.93;2.55;;;10.40;70.80;;;;;;5072356;28;20028;-73
2021/03/28 08:42:13;;;;;;;7.70;2.28;;;10.50;70.80;;;;;;5073181;28;20025;-73
2021/03/28 08:44:50;;;;;;;7.75;2.20;;;10.50;70.60;;;;;;5073377;28;20095;-73
2021/03/28 08:47:37;;;;;;;6.60;2.40;;;10.60;70.50;;;;;;5073288;28;20443;-73
2021/03/28 08:50:22;;;;;;;10.05;2.88;;;10.60;71.10;;;;;;5073191;28;20025;-73
2021/03/28 08:53:17;;;;;;;7.20;2.22;;;10.70;70.40;;;;;;5071879;28;20035;-73
2021/03/28 08:56:20;;;;;;;5.40;2.15;;;10.80;70.20;;;;;;5072004;28;20029;-73
2021/03/28 08:59:00;;;;;;;6.45;2.47;;;10.90;70.10;;;;;;5073278;28;20035;-73
2021/03/28 09:01:46;;;;;;;9.13;2.55;;;11.00;69.90;;;;;;5071703;28;20028;-73
2021/03/28 09:04:16;;;;;;;8.98;2.58;;;11.10;69.90;;;;;;5071699;28;20027;-72
2021/03/28 09:07:09;;;;;;;4.15;1.70;;;11.20;69.70;;;;;;5071788;28;20533;-72
2021/03/28 09:09:46;;;;;;;7.15;2.35;;;11.20;69.50;;;;;;5071646;28;20052;-73
2021/03/28 09:12:31;;;;;;;9.05;2.70;;;11.30;69.30;;;;;;5071757;28;20487;-73
2021/03/28 09:15:26;;;;;;;4.63;2.20;;;11.30;69.10;;;;;;5073027;28;20017;-73
2021/03/28 09:18:23;;;;;;;5.63;2.10;;;11.40;69.00;;;;;;5071474;28;20043;-72
2021/03/28 09:20:55;;;;;;;7.47;2.08;;;11.50;68.80;;;;;;5072263;28;20060;-73
2021/03/28 09:23:36;;;;;;;6.32;2.08;;;11.70;68.40;;;;;;5071755;28;20549;-73
2021/03/28 09:26:05;;;;;;;7.80;1.88;;;11.70;67.70;;;;;;5073047;28;20085;-73
2021/03/28 09:29:08;;;;;;;6.30;2.22;;;11.70;66.80;;;;;;5071552;28;20032;-73
2021/03/28 09:31:52;;;;;;;9.20;2.60;;;11.80;66.30;;;;;;5071418;28;20035;-73
2021/03/28 09:34:54;;;;;;;8.80;2.20;;;11.80;66.00;;;;;;5072749;28;20056;-73
2021/03/28 09:37:38;;;;;;;9.43;2.40;;;11.90;65.40;;;;;;5071382;28;20444;-73
2021/03/28 09:40:28;;;;;;;5.63;2.10;;;11.90;65.60;;;;;;5076638;28;20028;-73
2021/03/28 09:43:20;;;;;;;6.50;2.63;;;12.00;65.60;;;;;;5076709;28;20107;-73
2021/03/28 09:46:23;;;;;;;8.93;2.72;;;12.10;65.60;;;;;;5076925;28;20099;-74
2021/03/28 09:48:58;;;;;;;10.25;2.45;;;12.10;64.80;;;;;;5076730;28;20036;-73
2021/03/28 09:51:46;;;;;;;11.13;3.00;;;12.10;64.90;;;;;;5076443;28;20020;-74
2021/03/28 09:54:20;;;;;;;8.40;2.60;;;12.20;64.20;;;;;;5075226;28;20039;-73
2021/03/28 09:57:16;;;;;;;7.90;2.30;;;12.30;64.00;;;;;;5076516;28;20029;-74
2021/03/28 10:00:00;;;;;;;8.30;2.92;;;12.40;63.90;;;;;;5075080;28;20480;-73
2021/03/28 10:02:35;;;;;;;10.07;2.78;;;12.40;63.10;;;;;;5076312;28;20029;-73
2021/03/28 10:05:11;;;;;;;9.07;2.13;;;12.50;63.00;;;;;;5076372;28;20044;-73
2021/03/28 10:08:08;;;;;;;11.48;2.78;;;12.50;62.00;;;;;;5075052;28;20035;-73
2021/03/28 10:10:46;;;;;;;7.75;1.90;;;12.60;62.10;;;;;;5061077;28;20032;-73
2021/03/28 10:13:38;;;;;;;10.23;2.40;;;12.60;61.60;;;;;;5074939;28;20025;-73
2021/03/28 10:16:14;;;;;;;6.20;2.20;;;12.70;61.00;;;;;;5074720;28;20016;-73
2021/03/28 10:18:52;;;;;;;5.28;1.70;;;12.80;60.90;;;;;;5076570;28;20459;-74
2021/03/28 10:21:30;;;;;;;6.80;1.95;;;12.90;60.50;;;;;;5074618;28;20580;-74
2021/03/28 10:24:14;;;;;;;5.70;2.08;;;13.00;59.90;;;;;;5076087;28;20028;-73
2021/03/28 10:26:48;;;;;;;;;;;13.10;59.10;;;;;;5075179;28;20028;-73
2021/03/28 10:29:32;;;;;;;9.27;1.83;;;13.20;58.90;;;;;;5075889;28;19995;-74
2021/03/28 10:32:16;;;;;;;7.97;1.88;;;13.20;58.50;;;;;;5074600;28;20054;-73
2021/03/28 10:35:00;;;;;;;5.57;1.95;;;13.20;58.00;;;;;;5074582;28;20566;-73
2021/03/28 10:37:41;;;;;;;5.10;1.63;;;13.20;57.70;;;;;;5075509;28;20450;-74
2021/03/28 10:40:19;;;;;;;6.55;1.92;;;13.30;57.90;;;;;;5074216;28;20032;-74
2021/03/28 10:43:12;;;;;;;9.35;2.40;;;13.30;57.90;;;;;;5074349;28;20101;-74
2021/03/28 10:46:05;;;;;;;4.20;1.60;;;13.40;56.50;;;;;;5075607;28;20024;-74
2021/03/28 10:48:58;;;;;;;5.63;1.70;;;13.40;55.40;;;;;;5074228;28;20032;-73
2021/03/28 10:51:41;;;;;;;6.20;1.90;;;13.30;55.40;;;;;;5073582;28;20035;-75
2021/03/28 10:54:42;;;;;;;9.95;2.30;;;13.20;55.70;;;;;;5075285;28;20028;-73
2021/03/28 10:57:23;;;;;;;9.05;2.10;;;13.30;56.20;;;;;;5074489;28;20037;-73
2021/03/28 10:59:54;;;;;;;7.53;1.90;;;13.30;56.20;;;;;;5073828;28;20064;-74
2021/03/28 11:02:34;;;;;;;7.18;1.85;;;13.30;56.40;;;;;;5075227;28;20024;-73
2021/03/28 11:05:21;;;;;;;8.40;1.95;;;13.20;56.50;;;;;;5073909;28;20029;-73
2021/03/28 11:08:27;;;;;;;6.00;1.80;;;13.20;57.00;;;;;;5073880;28;20024;-73
2021/03/28 11:11:13;;;;;;;6.30;2.00;;;13.20;57.30;;;;;;5073762;28;20111;-73
2021/03/28 11:13:47;;;;;;;6.78;1.95;;;13.30;57.50;;;;;;5073881;28;20146;-73
2021/03/28 11:16:34;;;;;;;7.32;2.22;;;13.20;57.50;;;;;;5073724;28;20025;-73
2021/03/28 11:19:46;;;;;;;7.47;2.30;;;13.20;57.90;;;;;;5073634;28;20407;-73
2021/03/28 11:22:34;;;;;;;7.70;2.08;;;13.20;58.40;;;;;;5074780;28;20024;-74
2021/03/28 11:25:29;;;;;;;7.22;1.95;;;13.20;58.10;;;;;;5073621;28;20107;-74
2021/03/28 11:27:54;;;;;;;9.95;2.08;;;13.10;57.70;;;;;;5074671;28;20032;-74
2021/03/28 11:30:30;;;;;;;8.18;2.08;;;13.00;58.10;;;;;;5074665;28;20024;-74
2021/03/28 11:33:21;;;;;;;3.38;1.50;;;13.00;58.50;;;;;;5073390;28;20028;-74
2021/03/28 11:35:57;;;;;;;8.75;1.98;;;13.00;59.10;;;;;;5073180;28;20131;-75
2021/03/28 11:38:22;;;;;;;10.70;2.75;;;13.00;59.90;;;;;;5073147;28;20506;-74
2021/03/28 11:40:50;;;;;;;7.53;1.65;;;12.90;60.00;;;;;;5073154;28;20034;-73
2021/03/28 11:43:31;;;;;;;9.35;2.70;;;12.80;60.60;;;;;;5074430;28;20075;-73
2021/03/28 11:46:24;;;;;;;7.30;2.05;;;12.70;61.20;;;;;;5074433;28;20021;-73
2021/03/28 11:48:53;;;;;;;5.63;1.85;;;12.60;61.60;;;;;;5073094;28;20391;-73
2021/03/28 11:51:37;;;;;;;4.32;1.63;;;12.50;62.30;;;;;;5074400;28;20515;-73
2021/03/28 11:54:09;;;;;;;4.75;1.52;;;12.40;62.70;;;;;;5073030;28;20115;-73
2021/03/28 11:56:41;;;;;;;9.50;1.95;;;12.40;63.10;;;;;;5073037;28;20119;-73
2021/03/28 11:59:28;;;;;;;6.30;1.73;;;12.30;63.30;;;;;;5072847;28;20028;-73
2021/03/28 12:01:58;;;;;;;5.78;1.58;;;12.40;63.50;;;;;;5072713;28;20033;-74
2021/03/28 12:04:39;;;;;;;10.32;2.63;;;12.50;63.50;;;;;;5072712;28;20021;-73
2021/03/28 12:07:40;;;;;;;5.95;1.85;;;12.60;62.90;;;;;;5074564;28;20468;-73
2021/03/28 12:10:05;;;;;;;6.60;2.05;;;12.60;62.60;;;;;;5073625;28;20071;-73
2021/03/28 12:12:40;;;;;;;6.63;2.10;;;12.60;62.20;;;;;;5073915;28;20020;-73
2021/03/28 12:15:43;;;;;;;8.23;2.00;;;12.70;62.00;;;;;;5073974;28;20099;-73
2021/03/28 12:18:24;;;;;;;7.20;2.03;;;12.70;61.40;;;;;;5072467;28;20123;-73
2021/03/28 12:21:01;;;;;;;9.27;1.83;;;12.70;61.30;;;;;;5072445;28;20032;-74
2021/03/28 12:23:57;;;;;;;4.32;1.63;;;12.70;61.60;;;;;;5073820;28;20017;-73
2021/03/28 12:26:28;;;;;;;6.80;1.85;;;12.70;61.80;;;;;;5072464;28;20051;-73
2021/03/28 12:28:58;;;;;;;8.05;2.42;;;12.70;61.70;;;;;;5072518;28;20028;-74
2021/03/28 12:31:47;;;;;;;6.72;2.03;;;12.70;61.80;;;;;;5073673;28;20078;-73
2021/03/28 12:34:29;;;;;;;5.82;2.05;;;12.70;62.50;;;;;;5073603;28;20024;-72
2021/03/28 12:37:07;;;;;;;11.20;2.10;;;12.70;61.40;;;;;;5073416;28;20053;-73
2021/03/28 12:39:34;;;;;;;7.70;1.95;;;12.70;61.70;;;;;;5073645;28;20393;-73
2021/03/28 12:42:22;;;;;;;4.85;1.83;;;12.70;61.60;;;;;;5072350;28;20029;-73
2021/03/28 12:44:53;;;;;;;5.70;2.10;;;12.70;61.70;;;;;;5072142;28;20021;-73
2021/03/28 12:47:29;;;;;;;8.05;2.30;;;12.70;61.70;;;;;;5073361;28;20051;-73
2021/03/28 12:50:01;;;;;;;11.35;2.60;;;12.70;61.70;;;;;;5072056;28;20039;-73
2021/03/28 12:52:38;;;;;;;8.00;2.47;;;12.70;61.60;;;;;;5073586;28;20475;-73
2021/03/28 12:55:12;;;;;;;9.40;2.30;;;12.60;61.60;;;;;;5073400;28;20665;-72
2021/03/28 12:57:37;;;;;;;7.35;2.05;;;12.70;61.50;;;;;;5073310;28;20415;-73
2021/03/28 13:00:15;;;;;;;6.07;2.35;;;12.70;61.70;;;;;;5072561;28;20024;-74
2021/03/28 13:02:42;;;;;;;8.57;2.20;;;12.60;61.60;;;;;;5071884;28;20024;-72
2021/03/28 13:05:23;;;;;;;5.95;1.88;;;12.60;61.70;;;;;;5073401;28;20487;-73
2021/03/28 13:07:50;;;;;;;6.97;2.20;;;12.70;61.70;;;;;;5073312;28;20022;-72
2021/03/28 13:10:39;;;;;;;6.95;2.15;;;12.70;61.60;;;;;;5055194;28;20115;-73
2021/03/28 13:13:14;;;;;;;5.45;2.20;;;12.70;61.60;;;;;;5071406;28;20111;-73
2021/03/28 13:16:00;;;;;;;4.07;1.70;;;12.70;61.60;;;;;;5072991;28;20028;-73
2021/03/28 13:18:47;;;;;;;7.72;1.80;;;12.70;61.70;;;;;;5071875;28;20451;-73
2021/03/28 13:21:21;;;;;;;7.82;2.05;;;12.70;61.70;;;;;;5073430;28;20016;-73
2021/03/28 13:23:46;;;;;;;6.88;1.80;;;12.70;61.60;;;;;;5071837;28;20064;-73
2021/03/28 13:26:24;;;;;;;4.50;1.70;;;12.70;61.70;;;;;;5071706;28;20016;-73
2021/03/28 13:28:55;;;;;;;8.55;2.00;;;12.60;61.60;;;;;;5071727;28;20053;-73
2021/03/28 13:31:23;;;;;;;7.13;2.00;;;12.60;61.60;;;;;;5072183;28;20035;-74
2021/03/28 13:33:52;;;;;;;7.22;2.25;;;12.60;61.30;;;;;;5073069;28;20055;-72
2021/03/28 13:36:40;;;;;;;7.72;2.40;;;12.60;61.20;;;;;;5072748;28;20045;-72
2021/03/28 13:39:08;;;;;;;8.07;2.08;;;12.60;61.30;;;;;;5071678;28;20052;-73
2021/03/28 13:41:36;;;;;;;8.52;2.00;;;12.60;61.30;;;;;;5071569;28;20115;-72
2021/03/28 13:44:21;;;;;;;7.72;2.22;;;12.60;61.30;;;;;;5072787;28;20108;-72
2021/03/28 13:46:51;;;;;;;5.63;2.00;;;12.70;61.40;;;;;;5071512;28;20538;-73
2021/03/28 13:49:28;;;;;;;8.85;2.42;;;12.70;61.40;;;;;;5071510;28;20059;-73
2021/03/28 13:52:26;;;;;;;9.93;2.88;;;12.70;61.30;;;;;;5072902;28;20033;-72
2021/03/28 13:55:13;;;;;;;6.35;2.00;;;12.70;61.40;;;;;;5071798;28;20048;-73
2021/03/28 13:57:41;;;;;;;5.40;1.95;;;12.70;61.60;;;;;;5071369;28;20032;-73
2021/03/28 14:00:19;;;;;;;7.43;1.80;;;12.70;61.60;;;;;;5072554;28;20032;-73
2021/03/28 14:02:47;;;;;;;7.13;2.55;;;12.70;61.70;;;;;;5072523;28;20095;-73
2021/03/28 14:05:17;;;;;;;7.70;2.97;;;12.70;61.80;;;;;;5073031;28;20024;-73
2021/03/28 14:07:44;;;;;;;5.82;2.42;;;12.70;61.80;;;;;;5071173;28;20479;-72
2021/03/28 14:10:14;;;;;;;9.88;2.30;;;12.70;61.80;;;;;;5071211;28;20032;-73
2021/03/28 14:12:43;;;;;;;6.82;2.22;;;12.70;62.50;;;;;;5072403;28;20435;-73
2021/03/28 14:15:11;;;;;;;7.20;2.40;;;12.70;62.00;;;;;;5071075;28;20056;-73